sensor_id;sensor_type;location;lat;lon;timestamp;P1;durP1;ratioP1;P2;durP2;ratioP2
55815;SDS011;41744;52.404;16.942;2023-04-24T00:01:17;20.00;;;11.10;;
55815;SDS011;41744;52.404;16.942;2023-04-24T00:03:44;18.67;;;10.85;;
55815;SDS011;41744;52.404;16.942;2023-04-24T00:06:10;19.02;;;10.25;;
55815;SDS011;41744;52.404;16.942;2023-04-24T00:08:36;20.40;;;10.73;;
55815;SDS011;41744;52.404;16.942;2023-04-24T00:11:02;20.42;;;10.73;;
55815;SDS011;41744;52.404;16.942;2023-04-24T00:16:24;23.38;;;10.75;;
55815;SDS011;41744;52.404;16.942;2023-04-24T00:18:50;21.45;;;11.45;;
55815;SDS011;41744;52.404;16.942;2023-04-24T00:21:17;23.73;;;11.13;;
55815;SDS011;41744;52.404;16.942;2023-04-24T00:23:46;20.05;;;11.48;;
55815;SDS011;41744;52.404;16.942;2023-04-24T00:26:13;20.20;;;11.77;;
55815;SDS011;41744;52.404;16.942;2023-04-24T00:28:39;24.33;;;11.52;;
55815;SDS011;41744;52.404;16.942;2023-04-24T00:31:05;20.60;;;10.45;;
55815;SDS011;41744;52.404;16.942;2023-04-24T00:33:31;20.45;;;10.38;;
55815;SDS011;41744;52.404;16.942;2023-04-24T00:35:57;25.40;;;11.75;;
55815;SDS011;41744;52.404;16.942;2023-04-24T00:38:23;24.05;;;11.40;;
55815;SDS011;41744;52.404;16.942;2023-04-24T00:40:49;23.73;;;11.43;;
55815;SDS011;41744;52.404;16.942;2023-04-24T00:43:16;20.35;;;10.07;;
55815;SDS011;41744;52.404;16.942;2023-04-24T00:45:42;21.17;;;10.52;;
55815;SDS011;41744;52.404;16.942;2023-04-24T00:48:08;24.58;;;11.30;;
55815;SDS011;41744;52.404;16.942;2023-04-24T00:50:35;19.42;;;10.60;;
55815;SDS011;41744;52.404;16.942;2023-04-24T00:53:02;23.10;;;10.85;;
55815;SDS011;41744;52.404;16.942;2023-04-24T00:55:28;22.70;;;11.10;;
55815;SDS011;41744;52.404;16.942;2023-04-24T00:57:54;22.20;;;11.25;;
55815;SDS011;41744;52.404;16.942;2023-04-24T01:00:20;22.42;;;11.85;;
55815;SDS011;41744;52.404;16.942;2023-04-24T01:02:50;23.63;;;11.40;;
55815;SDS011;41744;52.404;16.942;2023-04-24T01:05:18;20.05;;;10.63;;
55815;SDS011;41744;52.404;16.942;2023-04-24T01:07:45;19.85;;;10.35;;
55815;SDS011;41744;52.404;16.942;2023-04-24T01:10:13;18.67;;;10.05;;
55815;SDS011;41744;52.404;16.942;2023-04-24T01:12:39;18.17;;;10.50;;
55815;SDS011;41744;52.404;16.942;2023-04-24T01:15:05;19.30;;;10.63;;
55815;SDS011;41744;52.404;16.942;2023-04-24T01:17:32;21.42;;;11.38;;
55815;SDS011;41744;52.404;16.942;2023-04-24T01:19:58;17.17;;;10.13;;
55815;SDS011;41744;52.404;16.942;2023-04-24T01:22:25;20.88;;;10.85;;
55815;SDS011;41744;52.404;16.942;2023-04-24T01:24:51;21.92;;;10.52;;
55815;SDS011;41744;52.404;16.942;2023-04-24T01:27:18;21.10;;;10.88;;
55815;SDS011;41744;52.404;16.942;2023-04-24T01:29:44;19.65;;;11.07;;
55815;SDS011;41744;52.404;16.942;2023-04-24T01:32:10;18.92;;;10.20;;
55815;SDS011;41744;52.404;16.942;2023-04-24T01:34:37;19.77;;;11.00;;
55815;SDS011;41744;52.404;16.942;2023-04-24T01:37:03;19.45;;;10.68;;
55815;SDS011;41744;52.404;16.942;2023-04-24T01:39:30;16.23;;;9.32;;
55815;SDS011;41744;52.404;16.942;2023-04-24T01:41:56;20.60;;;10.43;;
55815;SDS011;41744;52.404;16.942;2023-04-24T01:44:22;19.38;;;11.05;;
55815;SDS011;41744;52.404;16.942;2023-04-24T01:46:51;20.75;;;10.70;;
55815;SDS011;41744;52.404;16.942;2023-04-24T01:49:19;17.10;;;9.90;;
55815;SDS011;41744;52.404;16.942;2023-04-24T01:51:45;20.45;;;10.18;;
55815;SDS011;41744;52.404;16.942;2023-04-24T01:54:11;18.48;;;10.13;;
55815;SDS011;41744;52.404;16.942;2023-04-24T01:56:40;18.55;;;10.20;;
55815;SDS011;41744;52.404;16.942;2023-04-24T01:59:07;19.27;;;10.38;;
55815;SDS011;41744;52.404;16.942;2023-04-24T02:01:35;17.10;;;10.38;;
55815;SDS011;41744;52.404;16.942;2023-04-24T02:04:01;19.02;;;10.82;;
55815;SDS011;41744;52.404;16.942;2023-04-24T02:06:27;17.48;;;11.15;;
55815;SDS011;41744;52.404;16.942;2023-04-24T02:08:53;15.82;;;9.90;;
55815;SDS011;41744;52.404;16.942;2023-04-24T02:11:19;18.27;;;9.80;;
55815;SDS011;41744;52.404;16.942;2023-04-24T02:13:45;19.88;;;9.43;;
55815;SDS011;41744;52.404;16.942;2023-04-24T02:16:11;16.38;;;9.48;;
55815;SDS011;41744;52.404;16.942;2023-04-24T02:18:37;17.60;;;9.35;;
55815;SDS011;41744;52.404;16.942;2023-04-24T02:21:03;17.05;;;9.00;;
55815;SDS011;41744;52.404;16.942;2023-04-24T02:23:29;14.77;;;8.77;;
55815;SDS011;41744;52.404;16.942;2023-04-24T02:25:55;15.27;;;8.77;;
55815;SDS011;41744;52.404;16.942;2023-04-24T02:28:21;15.45;;;8.50;;
55815;SDS011;41744;52.404;16.942;2023-04-24T02:30:47;15.50;;;9.02;;
55815;SDS011;41744;52.404;16.942;2023-04-24T02:33:13;15.32;;;8.63;;
55815;SDS011;41744;52.404;16.942;2023-04-24T02:35:40;16.20;;;8.88;;
55815;SDS011;41744;52.404;16.942;2023-04-24T02:38:06;18.17;;;8.63;;
55815;SDS011;41744;52.404;16.942;2023-04-24T02:40:32;15.90;;;8.20;;
55815;SDS011;41744;52.404;16.942;2023-04-24T02:42:58;14.23;;;8.68;;
55815;SDS011;41744;52.404;16.942;2023-04-24T02:45:24;16.10;;;8.32;;
55815;SDS011;41744;52.404;16.942;2023-04-24T02:47:50;17.00;;;8.00;;
55815;SDS011;41744;52.404;16.942;2023-04-24T02:50:16;16.02;;;8.50;;
55815;SDS011;41744;52.404;16.942;2023-04-24T02:52:42;16.75;;;8.65;;
55815;SDS011;41744;52.404;16.942;2023-04-24T02:55:08;15.20;;;8.52;;
55815;SDS011;41744;52.404;16.942;2023-04-24T02:57:34;14.65;;;8.73;;
55815;SDS011;41744;52.404;16.942;2023-04-24T03:00:06;18.58;;;9.05;;
55815;SDS011;41744;52.404;16.942;2023-04-24T03:02:34;15.48;;;8.40;;
55815;SDS011;41744;52.404;16.942;2023-04-24T03:05:00;15.40;;;8.27;;
55815;SDS011;41744;52.404;16.942;2023-04-24T03:07:27;13.75;;;7.88;;
55815;SDS011;41744;52.404;16.942;2023-04-24T03:09:53;15.50;;;7.95;;
55815;SDS011;41744;52.404;16.942;2023-04-24T03:12:19;15.25;;;8.77;;
55815;SDS011;41744;52.404;16.942;2023-04-24T03:14:45;16.52;;;8.68;;
55815;SDS011;41744;52.404;16.942;2023-04-24T03:17:11;16.60;;;8.57;;
55815;SDS011;41744;52.404;16.942;2023-04-24T03:19:37;17.15;;;9.48;;
55815;SDS011;41744;52.404;16.942;2023-04-24T03:22:03;16.33;;;8.88;;
55815;SDS011;41744;52.404;16.942;2023-04-24T03:24:29;15.40;;;9.27;;
55815;SDS011;41744;52.404;16.942;2023-04-24T03:26:56;15.82;;;8.52;;
55815;SDS011;41744;52.404;16.942;2023-04-24T03:29:22;16.83;;;8.10;;
55815;SDS011;41744;52.404;16.942;2023-04-24T03:31:48;14.23;;;8.50;;
55815;SDS011;41744;52.404;16.942;2023-04-24T03:34:14;15.18;;;8.70;;
55815;SDS011;41744;52.404;16.942;2023-04-24T03:36:40;18.60;;;9.20;;
55815;SDS011;41744;52.404;16.942;2023-04-24T03:39:06;15.48;;;8.93;;
55815;SDS011;41744;52.404;16.942;2023-04-24T03:41:36;19.60;;;9.02;;
55815;SDS011;41744;52.404;16.942;2023-04-24T03:44:02;15.65;;;9.07;;
55815;SDS011;41744;52.404;16.942;2023-04-24T03:46:28;16.92;;;9.00;;
55815;SDS011;41744;52.404;16.942;2023-04-24T03:48:54;18.50;;;9.98;;
55815;SDS011;41744;52.404;16.942;2023-04-24T03:51:20;15.15;;;8.63;;
55815;SDS011;41744;52.404;16.942;2023-04-24T03:53:47;17.20;;;9.55;;
55815;SDS011;41744;52.404;16.942;2023-04-24T03:56:13;18.70;;;9.75;;
55815;SDS011;41744;52.404;16.942;2023-04-24T03:58:39;21.15;;;9.50;;
55815;SDS011;41744;52.404;16.942;2023-04-24T04:01:05;19.88;;;9.85;;
55815;SDS011;41744;52.404;16.942;2023-04-24T04:03:31;19.33;;;9.80;;
55815;SDS011;41744;52.404;16.942;2023-04-24T04:05:57;17.30;;;10.57;;
55815;SDS011;41744;52.404;16.942;2023-04-24T04:08:23;17.35;;;9.68;;
55815;SDS011;41744;52.404;16.942;2023-04-24T04:10:49;16.17;;;9.52;;
55815;SDS011;41744;52.404;16.942;2023-04-24T04:13:15;16.45;;;9.48;;
55815;SDS011;41744;52.404;16.942;2023-04-24T04:15:41;20.73;;;9.50;;
55815;SDS011;41744;52.404;16.942;2023-04-24T04:18:07;15.25;;;9.35;;
55815;SDS011;41744;52.404;16.942;2023-04-24T04:20:34;15.48;;;8.85;;
55815;SDS011;41744;52.404;16.942;2023-04-24T04:23:00;17.73;;;8.90;;
55815;SDS011;41744;52.404;16.942;2023-04-24T04:25:26;17.08;;;8.80;;
55815;SDS011;41744;52.404;16.942;2023-04-24T04:27:52;17.40;;;8.43;;
55815;SDS011;41744;52.404;16.942;2023-04-24T04:30:18;17.77;;;9.00;;
55815;SDS011;41744;52.404;16.942;2023-04-24T04:32:46;16.65;;;8.85;;
55815;SDS011;41744;52.404;16.942;2023-04-24T04:35:12;15.90;;;8.75;;
55815;SDS011;41744;52.404;16.942;2023-04-24T04:37:38;17.73;;;8.05;;
55815;SDS011;41744;52.404;16.942;2023-04-24T04:40:05;13.52;;;7.95;;
55815;SDS011;41744;52.404;16.942;2023-04-24T04:42:32;18.05;;;8.60;;
55815;SDS011;41744;52.404;16.942;2023-04-24T04:45:05;14.32;;;7.72;;
55815;SDS011;41744;52.404;16.942;2023-04-24T04:47:32;14.02;;;8.23;;
55815;SDS011;41744;52.404;16.942;2023-04-24T04:49:58;17.95;;;8.68;;
55815;SDS011;41744;52.404;16.942;2023-04-24T04:52:24;18.70;;;8.75;;
55815;SDS011;41744;52.404;16.942;2023-04-24T04:54:51;14.50;;;8.23;;
55815;SDS011;41744;52.404;16.942;2023-04-24T04:57:17;13.00;;;7.47;;
55815;SDS011;41744;52.404;16.942;2023-04-24T04:59:43;17.92;;;9.10;;
55815;SDS011;41744;52.404;16.942;2023-04-24T05:02:09;15.48;;;9.00;;
55815;SDS011;41744;52.404;16.942;2023-04-24T05:04:36;16.58;;;9.52;;
55815;SDS011;41744;52.404;16.942;2023-04-24T05:07:02;14.55;;;8.50;;
55815;SDS011;41744;52.404;16.942;2023-04-24T05:09:28;15.98;;;7.82;;
55815;SDS011;41744;52.404;16.942;2023-04-24T05:11:54;16.50;;;8.98;;
55815;SDS011;41744;52.404;16.942;2023-04-24T05:14:21;15.50;;;9.05;;
55815;SDS011;41744;52.404;16.942;2023-04-24T05:16:47;13.88;;;7.97;;
55815;SDS011;41744;52.404;16.942;2023-04-24T05:19:13;16.10;;;8.55;;
55815;SDS011;41744;52.404;16.942;2023-04-24T05:21:42;18.05;;;8.98;;
55815;SDS011;41744;52.404;16.942;2023-04-24T05:24:11;16.33;;;8.25;;
55815;SDS011;41744;52.404;16.942;2023-04-24T05:26:37;14.18;;;8.32;;
55815;SDS011;41744;52.404;16.942;2023-04-24T05:29:03;15.38;;;8.00;;
55815;SDS011;41744;52.404;16.942;2023-04-24T05:31:30;13.23;;;7.78;;
55815;SDS011;41744;52.404;16.942;2023-04-24T05:33:56;15.13;;;8.60;;
55815;SDS011;41744;52.404;16.942;2023-04-24T05:36:22;15.73;;;8.52;;
55815;SDS011;41744;52.404;16.942;2023-04-24T05:38:48;18.52;;;8.15;;
55815;SDS011;41744;52.404;16.942;2023-04-24T05:41:14;14.55;;;8.55;;
55815;SDS011;41744;52.404;16.942;2023-04-24T05:43:40;15.07;;;8.25;;
55815;SDS011;41744;52.404;16.942;2023-04-24T05:46:06;13.05;;;7.65;;
55815;SDS011;41744;52.404;16.942;2023-04-24T05:48:32;13.68;;;8.02;;
55815;SDS011;41744;52.404;16.942;2023-04-24T05:50:58;15.35;;;8.70;;
55815;SDS011;41744;52.404;16.942;2023-04-24T05:53:24;12.48;;;7.43;;
55815;SDS011;41744;52.404;16.942;2023-04-24T05:55:50;15.52;;;8.50;;
55815;SDS011;41744;52.404;16.942;2023-04-24T05:58:16;16.65;;;8.50;;
55815;SDS011;41744;52.404;16.942;2023-04-24T06:00:42;19.13;;;8.00;;
55815;SDS011;41744;52.404;16.942;2023-04-24T06:03:11;16.42;;;8.32;;
55815;SDS011;41744;52.404;16.942;2023-04-24T06:05:37;13.30;;;7.85;;
55815;SDS011;41744;52.404;16.942;2023-04-24T06:08:03;14.73;;;8.25;;
55815;SDS011;41744;52.404;16.942;2023-04-24T06:10:29;14.77;;;8.20;;
55815;SDS011;41744;52.404;16.942;2023-04-24T06:12:55;15.98;;;8.52;;
55815;SDS011;41744;52.404;16.942;2023-04-24T06:15:25;15.82;;;8.20;;
55815;SDS011;41744;52.404;16.942;2023-04-24T06:17:51;15.88;;;8.10;;
55815;SDS011;41744;52.404;16.942;2023-04-24T06:20:17;15.60;;;8.25;;
55815;SDS011;41744;52.404;16.942;2023-04-24T06:22:43;16.15;;;7.80;;
55815;SDS011;41744;52.404;16.942;2023-04-24T06:25:09;14.18;;;8.07;;
55815;SDS011;41744;52.404;16.942;2023-04-24T06:27:35;13.93;;;7.70;;
55815;SDS011;41744;52.404;16.942;2023-04-24T06:30:01;14.43;;;7.75;;
55815;SDS011;41744;52.404;16.942;2023-04-24T06:32:27;15.25;;;8.23;;
55815;SDS011;41744;52.404;16.942;2023-04-24T06:34:55;15.40;;;8.30;;
55815;SDS011;41744;52.404;16.942;2023-04-24T06:37:21;15.27;;;8.70;;
55815;SDS011;41744;52.404;16.942;2023-04-24T06:39:47;15.90;;;8.65;;
55815;SDS011;41744;52.404;16.942;2023-04-24T06:42:13;15.18;;;9.10;;
55815;SDS011;41744;52.404;16.942;2023-04-24T06:44:40;14.27;;;8.93;;
55815;SDS011;41744;52.404;16.942;2023-04-24T06:47:12;16.20;;;8.70;;
55815;SDS011;41744;52.404;16.942;2023-04-24T06:49:38;16.92;;;8.35;;
55815;SDS011;41744;52.404;16.942;2023-04-24T06:52:04;13.68;;;8.60;;
55815;SDS011;41744;52.404;16.942;2023-04-24T06:54:31;16.60;;;9.40;;
55815;SDS011;41744;52.404;16.942;2023-04-24T06:56:58;15.13;;;8.40;;
55815;SDS011;41744;52.404;16.942;2023-04-24T06:59:25;14.70;;;8.35;;
55815;SDS011;41744;52.404;16.942;2023-04-24T07:01:51;16.50;;;8.73;;
55815;SDS011;41744;52.404;16.942;2023-04-24T07:04:17;13.55;;;8.30;;
55815;SDS011;41744;52.404;16.942;2023-04-24T07:06:44;17.45;;;8.50;;
55815;SDS011;41744;52.404;16.942;2023-04-24T07:09:14;17.05;;;9.07;;
55815;SDS011;41744;52.404;16.942;2023-04-24T07:11:41;17.20;;;8.73;;
55815;SDS011;41744;52.404;16.942;2023-04-24T07:14:07;14.52;;;8.73;;
55815;SDS011;41744;52.404;16.942;2023-04-24T07:16:33;14.95;;;8.52;;
55815;SDS011;41744;52.404;16.942;2023-04-24T07:18:59;15.20;;;8.60;;
55815;SDS011;41744;52.404;16.942;2023-04-24T07:21:26;17.52;;;8.45;;
55815;SDS011;41744;52.404;16.942;2023-04-24T07:23:52;11.65;;;8.27;;
55815;SDS011;41744;52.404;16.942;2023-04-24T07:26:19;14.15;;;8.68;;
55815;SDS011;41744;52.404;16.942;2023-04-24T07:28:45;16.50;;;9.07;;
55815;SDS011;41744;52.404;16.942;2023-04-24T07:31:11;14.63;;;8.80;;
55815;SDS011;41744;52.404;16.942;2023-04-24T07:33:37;17.40;;;8.70;;
55815;SDS011;41744;52.404;16.942;2023-04-24T07:36:04;13.57;;;8.95;;
55815;SDS011;41744;52.404;16.942;2023-04-24T07:38:31;13.55;;;8.32;;
55815;SDS011;41744;52.404;16.942;2023-04-24T07:40:57;14.75;;;8.45;;
55815;SDS011;41744;52.404;16.942;2023-04-24T07:43:23;13.48;;;8.38;;
55815;SDS011;41744;52.404;16.942;2023-04-24T07:45:49;13.35;;;7.72;;
55815;SDS011;41744;52.404;16.942;2023-04-24T07:48:16;15.30;;;8.45;;
55815;SDS011;41744;52.404;16.942;2023-04-24T07:50:43;13.75;;;7.88;;
55815;SDS011;41744;52.404;16.942;2023-04-24T07:53:09;12.60;;;8.27;;
55815;SDS011;41744;52.404;16.942;2023-04-24T07:55:35;14.68;;;8.02;;
55815;SDS011;41744;52.404;16.942;2023-04-24T07:58:01;13.10;;;7.85;;
55815;SDS011;41744;52.404;16.942;2023-04-24T08:00:27;17.15;;;7.72;;
55815;SDS011;41744;52.404;16.942;2023-04-24T08:02:53;12.75;;;7.88;;
55815;SDS011;41744;52.404;16.942;2023-04-24T08:05:19;15.88;;;8.38;;
55815;SDS011;41744;52.404;16.942;2023-04-24T08:07:45;14.05;;;8.25;;
55815;SDS011;41744;52.404;16.942;2023-04-24T08:10:13;14.95;;;7.70;;
55815;SDS011;41744;52.404;16.942;2023-04-24T08:12:40;14.80;;;8.43;;
55815;SDS011;41744;52.404;16.942;2023-04-24T08:15:06;12.27;;;8.60;;
55815;SDS011;41744;52.404;16.942;2023-04-24T08:17:33;16.40;;;8.55;;
55815;SDS011;41744;52.404;16.942;2023-04-24T08:19:59;17.67;;;8.70;;
55815;SDS011;41744;52.404;16.942;2023-04-24T08:22:29;17.27;;;8.57;;
55815;SDS011;41744;52.404;16.942;2023-04-24T08:24:55;15.70;;;8.45;;
55815;SDS011;41744;52.404;16.942;2023-04-24T08:27:22;16.83;;;8.90;;
55815;SDS011;41744;52.404;16.942;2023-04-24T08:29:48;13.13;;;8.55;;
55815;SDS011;41744;52.404;16.942;2023-04-24T08:32:14;15.35;;;8.68;;
55815;SDS011;41744;52.404;16.942;2023-04-24T08:34:40;16.02;;;8.93;;
55815;SDS011;41744;52.404;16.942;2023-04-24T08:37:06;15.75;;;9.10;;
55815;SDS011;41744;52.404;16.942;2023-04-24T08:39:32;16.88;;;8.32;;
55815;SDS011;41744;52.404;16.942;2023-04-24T08:41:58;15.32;;;8.50;;
55815;SDS011;41744;52.404;16.942;2023-04-24T08:44:31;13.80;;;8.07;;
55815;SDS011;41744;52.404;16.942;2023-04-24T08:46:57;15.73;;;8.45;;
55815;SDS011;41744;52.404;16.942;2023-04-24T08:49:24;15.05;;;7.88;;
55815;SDS011;41744;52.404;16.942;2023-04-24T08:51:50;14.07;;;8.43;;
55815;SDS011;41744;52.404;16.942;2023-04-24T08:54:16;16.85;;;8.60;;
55815;SDS011;41744;52.404;16.942;2023-04-24T08:56:43;14.43;;;8.32;;
55815;SDS011;41744;52.404;16.942;2023-04-24T08:59:10;20.13;;;8.48;;
55815;SDS011;41744;52.404;16.942;2023-04-24T09:01:37;16.67;;;9.13;;
55815;SDS011;41744;52.404;16.942;2023-04-24T09:04:04;15.32;;;8.07;;
55815;SDS011;41744;52.404;16.942;2023-04-24T09:06:32;15.02;;;9.00;;
55815;SDS011;41744;52.404;16.942;2023-04-24T09:09:00;13.90;;;8.90;;
55815;SDS011;41744;52.404;16.942;2023-04-24T09:11:27;18.13;;;8.40;;
55815;SDS011;41744;52.404;16.942;2023-04-24T09:13:53;13.32;;;7.95;;
55815;SDS011;41744;52.404;16.942;2023-04-24T09:16:20;15.02;;;8.38;;
55815;SDS011;41744;52.404;16.942;2023-04-24T09:18:48;15.95;;;7.43;;
55815;SDS011;41744;52.404;16.942;2023-04-24T09:21:14;13.43;;;8.70;;
55815;SDS011;41744;52.404;16.942;2023-04-24T09:23:40;17.58;;;8.38;;
55815;SDS011;41744;52.404;16.942;2023-04-24T09:26:06;17.95;;;8.32;;
55815;SDS011;41744;52.404;16.942;2023-04-24T09:28:35;17.30;;;8.50;;
55815;SDS011;41744;52.404;16.942;2023-04-24T09:31:09;13.98;;;8.70;;
55815;SDS011;41744;52.404;16.942;2023-04-24T09:33:35;13.35;;;7.80;;
55815;SDS011;41744;52.404;16.942;2023-04-24T09:36:02;13.30;;;7.93;;
55815;SDS011;41744;52.404;16.942;2023-04-24T09:38:38;15.07;;;8.10;;
55815;SDS011;41744;52.404;16.942;2023-04-24T09:41:05;15.20;;;8.02;;
55815;SDS011;41744;52.404;16.942;2023-04-24T09:43:31;15.90;;;7.97;;
55815;SDS011;41744;52.404;16.942;2023-04-24T09:45:58;12.27;;;7.90;;
55815;SDS011;41744;52.404;16.942;2023-04-24T09:50:58;10.35;;;6.85;;
55815;SDS011;41744;52.404;16.942;2023-04-24T09:53:24;13.07;;;7.32;;
55815;SDS011;41744;52.404;16.942;2023-04-24T09:55:51;10.50;;;6.80;;
55815;SDS011;41744;52.404;16.942;2023-04-24T09:58:18;12.63;;;7.05;;
55815;SDS011;41744;52.404;16.942;2023-04-24T10:00:44;10.40;;;6.55;;
55815;SDS011;41744;52.404;16.942;2023-04-24T10:03:11;14.85;;;6.43;;
55815;SDS011;41744;52.404;16.942;2023-04-24T10:05:37;10.45;;;6.43;;
55815;SDS011;41744;52.404;16.942;2023-04-24T10:08:04;8.95;;;5.53;;
55815;SDS011;41744;52.404;16.942;2023-04-24T10:10:31;10.55;;;6.03;;
55815;SDS011;41744;52.404;16.942;2023-04-24T10:15:49;11.50;;;6.15;;
55815;SDS011;41744;52.404;16.942;2023-04-24T10:18:15;10.40;;;6.65;;
55815;SDS011;41744;52.404;16.942;2023-04-24T10:20:42;12.85;;;6.20;;
55815;SDS011;41744;52.404;16.942;2023-04-24T10:23:08;9.60;;;6.70;;
55815;SDS011;41744;52.404;16.942;2023-04-24T10:25:36;12.63;;;6.88;;
55815;SDS011;41744;52.404;16.942;2023-04-24T10:28:03;13.50;;;7.85;;
55815;SDS011;41744;52.404;16.942;2023-04-24T10:30:33;11.32;;;6.82;;
55815;SDS011;41744;52.404;16.942;2023-04-24T10:33:05;11.20;;;7.32;;
55815;SDS011;41744;52.404;16.942;2023-04-24T10:35:32;10.13;;;6.55;;
55815;SDS011;41744;52.404;16.942;2023-04-24T10:38:05;8.85;;;6.40;;
55815;SDS011;41744;52.404;16.942;2023-04-24T10:40:33;9.40;;;6.43;;
55815;SDS011;41744;52.404;16.942;2023-04-24T10:43:01;9.73;;;6.70;;
55815;SDS011;41744;52.404;16.942;2023-04-24T10:45:27;10.15;;;6.55;;
55815;SDS011;41744;52.404;16.942;2023-04-24T10:47:57;10.00;;;6.68;;
55815;SDS011;41744;52.404;16.942;2023-04-24T10:50:26;10.00;;;6.55;;
55815;SDS011;41744;52.404;16.942;2023-04-24T10:52:52;10.70;;;7.30;;
55815;SDS011;41744;52.404;16.942;2023-04-24T10:55:40;12.02;;;6.97;;
55815;SDS011;41744;52.404;16.942;2023-04-24T10:58:07;10.07;;;6.97;;
55815;SDS011;41744;52.404;16.942;2023-04-24T11:00:33;11.20;;;6.50;;
55815;SDS011;41744;52.404;16.942;2023-04-24T11:03:01;9.90;;;6.78;;
55815;SDS011;41744;52.404;16.942;2023-04-24T11:06:03;11.73;;;7.00;;
55815;SDS011;41744;52.404;16.942;2023-04-24T11:08:43;11.85;;;7.22;;
55815;SDS011;41744;52.404;16.942;2023-04-24T11:11:12;10.57;;;6.60;;
55815;SDS011;41744;52.404;16.942;2023-04-24T11:18:49;7.57;;;5.20;;
55815;SDS011;41744;52.404;16.942;2023-04-24T11:21:18;7.07;;;5.07;;
55815;SDS011;41744;52.404;16.942;2023-04-24T11:23:47;5.90;;;4.20;;
55815;SDS011;41744;52.404;16.942;2023-04-24T11:26:21;8.52;;;4.25;;
55815;SDS011;41744;52.404;16.942;2023-04-24T11:28:49;5.18;;;3.72;;
55815;SDS011;41744;52.404;16.942;2023-04-24T11:31:34;9.43;;;3.85;;
55815;SDS011;41744;52.404;16.942;2023-04-24T11:34:07;7.50;;;4.20;;
55815;SDS011;41744;52.404;16.942;2023-04-24T11:36:33;5.75;;;3.97;;
55815;SDS011;41744;52.404;16.942;2023-04-24T11:39:00;7.03;;;4.07;;
55815;SDS011;41744;52.404;16.942;2023-04-24T11:41:26;7.50;;;3.72;;
55815;SDS011;41744;52.404;16.942;2023-04-24T11:43:52;6.13;;;4.07;;
55815;SDS011;41744;52.404;16.942;2023-04-24T11:46:20;4.80;;;3.47;;
55815;SDS011;41744;52.404;16.942;2023-04-24T11:48:46;5.20;;;3.20;;
55815;SDS011;41744;52.404;16.942;2023-04-24T11:51:13;6.95;;;3.20;;
55815;SDS011;41744;52.404;16.942;2023-04-24T11:53:39;5.35;;;3.25;;
55815;SDS011;41744;52.404;16.942;2023-04-24T11:56:06;5.18;;;2.80;;
55815;SDS011;41744;52.404;16.942;2023-04-24T11:58:35;4.70;;;2.70;;
55815;SDS011;41744;52.404;16.942;2023-04-24T12:01:01;6.65;;;2.63;;
55815;SDS011;41744;52.404;16.942;2023-04-24T12:03:28;4.35;;;3.00;;
55815;SDS011;41744;52.404;16.942;2023-04-24T12:06:15;4.82;;;2.92;;
55815;SDS011;41744;52.404;16.942;2023-04-24T12:08:40;4.90;;;2.97;;
55815;SDS011;41744;52.404;16.942;2023-04-24T12:11:06;2.95;;;2.63;;
55815;SDS011;41744;52.404;16.942;2023-04-24T12:13:33;5.60;;;3.05;;
55815;SDS011;41744;52.404;16.942;2023-04-24T12:16:02;3.80;;;2.88;;
55815;SDS011;41744;52.404;16.942;2023-04-24T12:18:29;5.25;;;2.80;;
55815;SDS011;41744;52.404;16.942;2023-04-24T12:21:01;3.85;;;3.03;;
55815;SDS011;41744;52.404;16.942;2023-04-24T12:23:42;4.72;;;3.15;;
55815;SDS011;41744;52.404;16.942;2023-04-24T12:26:08;3.95;;;3.30;;
55815;SDS011;41744;52.404;16.942;2023-04-24T12:28:38;4.35;;;3.35;;
55815;SDS011;41744;52.404;16.942;2023-04-24T12:31:05;5.25;;;3.22;;
55815;SDS011;41744;52.404;16.942;2023-04-24T12:33:35;3.70;;;3.15;;
55815;SDS011;41744;52.404;16.942;2023-04-24T12:36:01;5.75;;;3.40;;
55815;SDS011;41744;52.404;16.942;2023-04-24T12:38:27;7.28;;;3.20;;
55815;SDS011;41744;52.404;16.942;2023-04-24T12:41:14;6.05;;;3.65;;
55815;SDS011;41744;52.404;16.942;2023-04-24T12:43:52;5.28;;;3.40;;
55815;SDS011;41744;52.404;16.942;2023-04-24T12:46:19;7.95;;;3.65;;
55815;SDS011;41744;52.404;16.942;2023-04-24T12:48:45;4.43;;;3.35;;
55815;SDS011;41744;52.404;16.942;2023-04-24T12:51:11;4.45;;;3.25;;
55815;SDS011;41744;52.404;16.942;2023-04-24T12:53:37;6.13;;;3.50;;
55815;SDS011;41744;52.404;16.942;2023-04-24T12:56:06;5.78;;;4.07;;
55815;SDS011;41744;52.404;16.942;2023-04-24T12:58:32;6.38;;;4.15;;
55815;SDS011;41744;52.404;16.942;2023-04-24T13:00:58;6.53;;;3.70;;
55815;SDS011;41744;52.404;16.942;2023-04-24T13:03:25;6.60;;;4.18;;
55815;SDS011;41744;52.404;16.942;2023-04-24T13:05:51;7.70;;;4.53;;
55815;SDS011;41744;52.404;16.942;2023-04-24T13:08:18;8.18;;;4.05;;
55815;SDS011;41744;52.404;16.942;2023-04-24T13:10:44;6.70;;;4.30;;
55815;SDS011;41744;52.404;16.942;2023-04-24T13:13:10;6.50;;;3.97;;
55815;SDS011;41744;52.404;16.942;2023-04-24T13:15:36;6.68;;;3.90;;
55815;SDS011;41744;52.404;16.942;2023-04-24T13:18:02;6.40;;;3.70;;
55815;SDS011;41744;52.404;16.942;2023-04-24T13:20:28;4.40;;;3.00;;
55815;SDS011;41744;52.404;16.942;2023-04-24T13:22:54;4.60;;;2.90;;
55815;SDS011;41744;52.404;16.942;2023-04-24T13:25:20;6.10;;;2.90;;
55815;SDS011;41744;52.404;16.942;2023-04-24T13:27:48;6.50;;;2.92;;
55815;SDS011;41744;52.404;16.942;2023-04-24T13:30:14;6.05;;;2.60;;
55815;SDS011;41744;52.404;16.942;2023-04-24T13:32:40;4.93;;;2.60;;
55815;SDS011;41744;52.404;16.942;2023-04-24T13:35:06;6.63;;;2.55;;
55815;SDS011;41744;52.404;16.942;2023-04-24T13:37:33;4.55;;;2.10;;
55815;SDS011;41744;52.404;16.942;2023-04-24T13:39:59;4.90;;;2.25;;
55815;SDS011;41744;52.404;16.942;2023-04-24T13:42:25;4.93;;;2.42;;
55815;SDS011;41744;52.404;16.942;2023-04-24T13:44:51;4.68;;;2.20;;
55815;SDS011;41744;52.404;16.942;2023-04-24T13:47:20;4.68;;;2.33;;
55815;SDS011;41744;52.404;16.942;2023-04-24T13:49:46;4.18;;;2.13;;
55815;SDS011;41744;52.404;16.942;2023-04-24T13:52:12;3.33;;;1.77;;
55815;SDS011;41744;52.404;16.942;2023-04-24T13:54:38;3.38;;;1.52;;
55815;SDS011;41744;52.404;16.942;2023-04-24T13:57:04;4.40;;;1.70;;
55815;SDS011;41744;52.404;16.942;2023-04-24T13:59:31;4.50;;;1.23;;
55815;SDS011;41744;52.404;16.942;2023-04-24T14:01:57;2.40;;;1.40;;
55815;SDS011;41744;52.404;16.942;2023-04-24T14:04:23;2.88;;;1.50;;
55815;SDS011;41744;52.404;16.942;2023-04-24T14:06:49;1.90;;;1.30;;
55815;SDS011;41744;52.404;16.942;2023-04-24T14:09:15;2.38;;;1.40;;
55815;SDS011;41744;52.404;16.942;2023-04-24T14:11:41;3.85;;;1.23;;
55815;SDS011;41744;52.404;16.942;2023-04-24T14:14:07;3.30;;;1.27;;
55815;SDS011;41744;52.404;16.942;2023-04-24T14:16:34;3.15;;;1.20;;
55815;SDS011;41744;52.404;16.942;2023-04-24T14:19:00;3.42;;;1.35;;
55815;SDS011;41744;52.404;16.942;2023-04-24T14:21:26;2.20;;;1.50;;
55815;SDS011;41744;52.404;16.942;2023-04-24T14:23:52;3.35;;;1.38;;
55815;SDS011;41744;52.404;16.942;2023-04-24T14:26:18;1.70;;;1.10;;
55815;SDS011;41744;52.404;16.942;2023-04-24T14:28:45;2.08;;;1.50;;
55815;SDS011;41744;52.404;16.942;2023-04-24T14:31:11;3.85;;;1.65;;
55815;SDS011;41744;52.404;16.942;2023-04-24T14:33:39;3.28;;;1.85;;
55815;SDS011;41744;52.404;16.942;2023-04-24T14:36:05;7.93;;;1.85;;